createdAt,value
2018-03-30T00:01:26.369Z,14.00
2018-03-30T00:03:29.762Z,15.73
2018-03-30T00:05:33.196Z,15.30
2018-03-30T00:07:36.597Z,12.60
2018-03-30T00:09:52.610Z,14.53
2018-03-30T00:11:55.955Z,12.23
2018-03-30T00:13:59.294Z,11.67
2018-03-30T00:16:02.618Z,12.20
2018-03-30T00:18:05.992Z,9.40
2018-03-30T00:20:09.392Z,11.33
2018-03-30T00:22:13.516Z,12.20
2018-03-30T00:24:17.601Z,10.10
2018-03-30T00:26:20.987Z,14.87
2018-03-30T00:28:24.379Z,14.50
2018-03-30T00:30:28.505Z,12.20
2018-03-30T00:32:32.603Z,13.60
2018-03-30T00:34:35.986Z,16.03
2018-03-30T00:36:40.114Z,11.37
2018-03-30T00:38:44.268Z,15.60
2018-03-30T00:40:47.592Z,12.20
2018-03-30T00:42:50.947Z,10.50
2018-03-30T00:44:54.285Z,11.60
2018-03-30T00:46:58.430Z,14.40
2018-03-30T00:49:02.616Z,11.57
2018-03-30T00:51:06.033Z,9.70
2018-03-30T00:53:21.150Z,12.87
2018-03-30T00:55:24.566Z,12.40
2018-03-30T00:57:27.910Z,20.47
2018-03-30T00:59:31.316Z,9.63
2018-03-30T01:01:34.652Z,10.37
2018-03-30T01:03:38.796Z,16.13
2018-03-30T01:05:42.284Z,10.67
2018-03-30T01:07:45.703Z,10.30
2018-03-30T01:09:49.086Z,12.00
2018-03-30T01:11:52.458Z,12.47
2018-03-30T01:13:56.678Z,14.13
2018-03-30T01:16:00.038Z,15.03
2018-03-30T01:18:04.180Z,16.67
2018-03-30T01:20:07.634Z,18.40
2018-03-30T01:22:10.994Z,12.77
2018-03-30T01:24:14.335Z,16.60
2018-03-30T01:26:17.722Z,15.10
2018-03-30T01:28:21.073Z,13.13
2018-03-30T01:30:24.517Z,18.90
2018-03-30T01:32:27.891Z,25.43
2018-03-30T01:34:33.193Z,17.07
2018-03-30T01:36:36.558Z,15.10
2018-03-30T01:38:39.885Z,14.10
2018-03-30T01:40:43.255Z,12.50
2018-03-30T01:42:46.589Z,14.27
2018-03-30T01:44:50.723Z,14.23
2018-03-30T01:46:54.067Z,15.50
2018-03-30T01:48:58.184Z,13.50
2018-03-30T01:51:02.387Z,12.27
2018-03-30T01:53:05.792Z,13.20
2018-03-30T01:55:09.163Z,17.23
2018-03-30T01:57:12.548Z,12.13
2018-03-30T01:59:15.911Z,13.40
2018-03-30T02:01:19.330Z,12.30
2018-03-30T02:03:22.699Z,10.73
2018-03-30T02:05:26.041Z,17.83
2018-03-30T02:07:29.397Z,10.00
2018-03-30T02:09:32.732Z,12.40
2018-03-30T02:11:36.897Z,13.30
2018-03-30T02:13:40.304Z,9.30
2018-03-30T02:15:43.633Z,9.07
2018-03-30T02:17:47.723Z,9.67
2018-03-30T02:19:51.076Z,12.20
2018-03-30T02:21:54.475Z,16.33
2018-03-30T02:23:57.834Z,11.77
2018-03-30T02:26:01.919Z,12.13
2018-03-30T02:28:05.277Z,9.20
2018-03-30T02:30:08.639Z,8.60
2018-03-30T02:32:11.973Z,12.63
2018-03-30T02:34:15.307Z,10.50
2018-03-30T02:36:18.682Z,12.90
2018-03-30T02:38:22.072Z,11.33
2018-03-30T02:40:26.398Z,14.17
2018-03-30T02:42:29.991Z,14.20
2018-03-30T02:44:33.565Z,11.27
2018-03-30T02:46:37.165Z,12.50
2018-03-30T02:48:41.273Z,9.67
2018-03-30T02:50:45.407Z,9.20
2018-03-30T02:52:49.562Z,9.80
2018-03-30T02:54:52.908Z,10.97
2018-03-30T02:56:56.248Z,12.80
2018-03-30T02:58:59.644Z,14.47
2018-03-30T03:01:02.986Z,9.30
2018-03-30T03:03:07.195Z,13.77
2018-03-30T03:05:10.536Z,14.03
2018-03-30T03:07:13.879Z,8.40
2018-03-30T03:09:17.992Z,11.33
2018-03-30T03:11:22.092Z,7.60
2018-03-30T03:13:26.241Z,12.90
2018-03-30T03:15:29.583Z,9.87
2018-03-30T03:17:33.700Z,11.53
2018-03-30T03:19:37.843Z,11.80
2018-03-30T03:21:41.218Z,11.07
2018-03-30T03:23:44.601Z,9.40
2018-03-30T03:25:48.737Z,7.67
2018-03-30T03:27:52.063Z,7.17
2018-03-30T03:29:55.409Z,8.03
2018-03-30T03:31:58.777Z,9.43
2018-03-30T03:34:02.945Z,12.80
2018-03-30T03:36:06.263Z,9.20
2018-03-30T03:38:09.594Z,9.30
2018-03-30T03:40:12.963Z,10.53
2018-03-30T03:42:17.044Z,8.63
2018-03-30T03:44:20.438Z,10.57
2018-03-30T03:46:23.799Z,9.27
2018-03-30T03:48:27.121Z,9.17
2018-03-30T03:50:30.477Z,10.23
2018-03-30T03:52:33.814Z,13.40
2018-03-30T03:54:37.166Z,11.53
2018-03-30T03:56:40.580Z,13.20
2018-03-30T03:58:43.862Z,8.83
2018-03-30T04:00:47.243Z,9.57
2018-03-30T04:02:50.583Z,9.97
2018-03-30T04:04:54.683Z,9.70
2018-03-30T04:06:58.855Z,8.80
2018-03-30T04:09:02.218Z,8.73
2018-03-30T04:11:05.616Z,8.80
2018-03-30T04:13:08.998Z,10.90
2018-03-30T04:15:12.331Z,9.53
2018-03-30T04:17:16.468Z,7.83
2018-03-30T04:19:19.796Z,10.40
2018-03-30T04:21:23.157Z,12.20
2018-03-30T04:23:26.484Z,9.33
2018-03-30T04:25:29.877Z,12.27
2018-03-30T04:27:33.234Z,10.20
2018-03-30T04:29:36.560Z,10.10
2018-03-30T04:31:39.958Z,7.63
2018-03-30T04:33:44.046Z,10.67
2018-03-30T04:35:48.150Z,11.87
2018-03-30T04:37:51.539Z,10.10
2018-03-30T04:39:54.907Z,10.60
2018-03-30T04:41:58.243Z,6.83
2018-03-30T04:44:01.611Z,7.20
2018-03-30T04:46:05.710Z,12.47
2018-03-30T04:48:09.831Z,11.80
2018-03-30T04:50:13.197Z,15.30
2018-03-30T04:52:16.549Z,10.80
2018-03-30T04:54:19.900Z,8.50
2018-03-30T04:56:23.990Z,11.63
2018-03-30T04:58:27.314Z,11.23
2018-03-30T05:00:31.407Z,8.83
2018-03-30T05:02:34.740Z,9.10
2018-03-30T05:04:38.058Z,8.80
2018-03-30T05:06:41.426Z,9.50
2018-03-30T05:08:44.754Z,8.43
2018-03-30T05:10:48.066Z,10.40
2018-03-30T05:12:52.215Z,17.10
2018-03-30T05:14:55.534Z,10.50
2018-03-30T05:16:58.872Z,11.00
2018-03-30T05:19:02.226Z,9.27
2018-03-30T05:21:05.572Z,9.23
2018-03-30T05:23:08.900Z,10.63
2018-03-30T05:25:12.248Z,11.03
2018-03-30T05:27:15.591Z,8.80
2018-03-30T05:29:18.945Z,7.23
2018-03-30T05:31:22.250Z,7.57
2018-03-30T05:33:25.557Z,6.30
2018-03-30T05:35:28.885Z,11.53
2018-03-30T05:37:33.012Z,9.73
2018-03-30T05:39:36.350Z,7.60
2018-03-30T05:41:39.691Z,11.53
2018-03-30T05:43:43.039Z,7.47
2018-03-30T05:45:46.378Z,7.37
2018-03-30T05:47:49.705Z,8.60
2018-03-30T05:49:53.050Z,9.97
2018-03-30T05:51:56.391Z,6.97
2018-03-30T05:53:59.727Z,8.23
2018-03-30T05:56:03.861Z,9.27
2018-03-30T05:58:07.272Z,9.33
2018-03-30T06:00:10.661Z,10.33
2018-03-30T06:02:14.001Z,9.10
2018-03-30T06:04:18.124Z,9.20
2018-03-30T06:06:21.457Z,10.60
2018-03-30T06:08:24.789Z,9.97
2018-03-30T06:10:28.199Z,16.37
2018-03-30T06:12:31.527Z,22.63
2018-03-30T06:14:34.866Z,22.60
2018-03-30T06:16:38.971Z,12.70
2018-03-30T06:18:43.059Z,15.13
2018-03-30T06:20:46.439Z,12.53
2018-03-30T06:22:49.766Z,15.87
2018-03-30T06:24:53.893Z,11.93
2018-03-30T06:26:57.245Z,16.80
2018-03-30T06:29:00.568Z,13.60
2018-03-30T06:31:04.880Z,12.10
2018-03-30T06:33:09.182Z,23.27
2018-03-30T06:35:12.518Z,10.50
2018-03-30T06:37:15.853Z,15.20
2018-03-30T06:39:19.181Z,10.63
2018-03-30T06:41:22.612Z,12.13
2018-03-30T06:43:25.932Z,8.03
2018-03-30T06:45:29.310Z,9.57
2018-03-30T06:47:32.647Z,11.83
2018-03-30T06:49:35.989Z,10.63
2018-03-30T06:51:39.311Z,14.60
2018-03-30T06:53:43.410Z,12.03
2018-03-30T06:55:47.516Z,16.17
2018-03-30T06:57:50.838Z,12.40
2018-03-30T06:59:54.946Z,11.47
2018-03-30T07:01:58.264Z,9.77
2018-03-30T07:04:01.590Z,15.00
2018-03-30T07:06:04.918Z,13.47
2018-03-30T07:08:08.241Z,12.40
2018-03-30T07:10:11.550Z,12.70
2018-03-30T07:12:14.869Z,26.93
2018-03-30T07:14:18.232Z,28.80
2018-03-30T07:16:21.580Z,65.60
2018-03-30T07:18:24.927Z,34.97
2018-03-30T07:20:28.251Z,25.67
2018-03-30T07:22:31.588Z,12.57
2018-03-30T07:24:34.964Z,13.80
2018-03-30T07:26:38.294Z,12.80
2018-03-30T07:28:41.752Z,15.23
2018-03-30T07:30:45.063Z,19.07
2018-03-30T07:32:48.772Z,11.13
2018-03-30T07:34:52.424Z,9.90
2018-03-30T07:36:55.813Z,13.40
2018-03-30T07:38:59.267Z,11.00
2018-03-30T07:41:02.707Z,11.27
2018-03-30T07:43:06.365Z,11.20
2018-03-30T07:45:09.716Z,8.00
2018-03-30T07:47:13.122Z,10.97
2018-03-30T07:49:16.497Z,10.30
2018-03-30T07:51:19.808Z,7.80
2018-03-30T07:53:23.176Z,11.87
2018-03-30T07:55:26.545Z,10.63
2018-03-30T07:57:29.873Z,7.50
2018-03-30T07:59:33.326Z,9.70
2018-03-30T08:01:36.694Z,8.20
2018-03-30T08:03:40.806Z,11.10
2018-03-30T08:05:44.108Z,13.13
2018-03-30T08:07:48.233Z,12.47
2018-03-30T08:09:51.564Z,10.47
2018-03-30T08:11:54.943Z,10.40
2018-03-30T08:13:58.285Z,9.77
2018-03-30T08:16:02.630Z,7.53
2018-03-30T08:18:07.052Z,8.90
2018-03-30T08:20:11.373Z,7.00
2018-03-30T08:22:14.876Z,7.60
2018-03-30T08:24:18.384Z,8.40
2018-03-30T08:26:22.576Z,11.20
2018-03-30T08:28:25.966Z,9.20
2018-03-30T08:30:29.373Z,9.30
2018-03-30T08:32:32.744Z,10.83
2018-03-30T08:34:36.166Z,7.50
2018-03-30T08:36:40.602Z,7.80
2018-03-30T08:38:45.208Z,6.50
2018-03-30T08:40:50.177Z,9.30
2018-03-30T08:42:54.059Z,10.20
2018-03-30T08:44:57.576Z,7.40
2018-03-30T08:47:02.337Z,7.60
2018-03-30T08:49:06.754Z,6.00
2018-03-30T08:51:10.144Z,7.30
2018-03-30T08:53:13.464Z,6.00
2018-03-30T08:55:17.431Z,6.70
2018-03-30T08:57:20.790Z,7.47
2018-03-30T08:59:24.353Z,6.70
2018-03-30T09:01:28.031Z,6.83
2018-03-30T09:03:31.428Z,5.17
2018-03-30T09:05:34.763Z,5.50
2018-03-30T09:07:38.320Z,7.73
2018-03-30T09:09:41.694Z,4.83
2018-03-30T09:11:45.795Z,8.63
2018-03-30T09:13:49.130Z,4.90
2018-03-30T09:15:52.463Z,4.70
2018-03-30T09:17:55.814Z,5.73
2018-03-30T09:19:59.158Z,6.30
2018-03-30T09:22:02.476Z,8.13
2018-03-30T09:24:05.822Z,6.90
2018-03-30T09:26:09.946Z,4.00
2018-03-30T09:28:13.302Z,6.20
2018-03-30T09:30:16.721Z,3.90
2018-03-30T09:32:20.829Z,4.70
2018-03-30T09:34:24.920Z,4.37
2018-03-30T09:36:28.260Z,5.33
2018-03-30T09:38:31.630Z,4.17
2018-03-30T09:40:35.728Z,7.13
2018-03-30T09:42:39.822Z,8.33
2018-03-30T09:44:43.141Z,3.00
2018-03-30T09:46:46.472Z,3.87
2018-03-30T09:48:49.818Z,6.33
2018-03-30T09:50:53.919Z,3.53
2018-03-30T09:52:58.001Z,3.60
2018-03-30T09:55:01.451Z,3.00
2018-03-30T09:57:04.779Z,3.87
2018-03-30T09:59:08.139Z,4.03
2018-03-30T10:01:16.315Z,7.50
2018-03-30T10:03:20.391Z,5.87
2018-03-30T10:05:24.526Z,4.80
2018-03-30T10:07:28.620Z,4.73
2018-03-30T10:09:33.079Z,4.53
2018-03-30T10:11:36.486Z,5.13
2018-03-30T10:13:40.546Z,8.17
2018-03-30T10:15:45.320Z,7.60
2018-03-30T10:17:49.477Z,3.53
2018-03-30T10:19:54.374Z,4.80
2018-03-30T10:21:57.889Z,2.97
2018-03-30T10:24:02.153Z,3.47
2018-03-30T10:26:05.546Z,5.50
2018-03-30T10:28:08.889Z,4.87
2018-03-30T10:30:12.250Z,8.50
2018-03-30T10:32:15.598Z,5.03
2018-03-30T10:34:19.681Z,3.10
2018-03-30T10:36:23.025Z,6.67
2018-03-30T10:38:26.338Z,4.07
2018-03-30T10:40:29.680Z,3.03
2018-03-30T10:42:32.980Z,6.97
2018-03-30T10:44:36.346Z,4.00
2018-03-30T10:46:39.860Z,2.70
2018-03-30T10:48:43.492Z,8.47
2018-03-30T10:50:46.987Z,10.30
2018-03-30T10:52:50.501Z,4.20
2018-03-30T10:54:54.613Z,4.83
2018-03-30T10:56:57.962Z,3.90
2018-03-30T10:59:01.318Z,3.70
2018-03-30T11:01:05.466Z,2.30
2018-03-30T11:03:08.793Z,2.77
2018-03-30T11:05:12.140Z,2.23
2018-03-30T11:07:16.256Z,2.53
2018-03-30T11:09:19.598Z,3.73
2018-03-30T11:11:22.972Z,3.00
2018-03-30T11:13:26.417Z,2.80
2018-03-30T11:15:31.400Z,2.80
2018-03-30T11:17:36.089Z,2.47
2018-03-30T11:19:40.326Z,3.63
2018-03-30T11:21:44.419Z,3.17
2018-03-30T11:23:47.748Z,4.00
2018-03-30T11:25:51.086Z,3.30
2018-03-30T11:27:55.126Z,3.13
2018-03-30T11:29:58.536Z,4.63
2018-03-30T11:32:01.981Z,4.60
2018-03-30T11:34:07.126Z,3.43
2018-03-30T11:36:11.426Z,4.80
2018-03-30T11:38:16.150Z,3.30
2018-03-30T11:40:21.081Z,7.07
2018-03-30T11:42:24.473Z,3.30
2018-03-30T11:44:27.943Z,1.73
2018-03-30T11:46:32.089Z,5.30
2018-03-30T11:48:36.334Z,1.77
2018-03-30T11:50:40.428Z,2.47
2018-03-30T11:52:44.795Z,1.90
2018-03-30T11:54:49.024Z,3.30
2018-03-30T11:56:52.345Z,3.93
2018-03-30T11:58:55.763Z,4.20
2018-03-30T12:00:59.204Z,4.47
2018-03-30T12:03:02.641Z,2.53
2018-03-30T12:05:06.021Z,2.60
2018-03-30T12:07:10.256Z,5.60
2018-03-30T12:09:13.722Z,3.13
2018-03-30T12:11:17.069Z,1.70
2018-03-30T12:13:20.585Z,3.77
2018-03-30T12:15:23.899Z,3.47
2018-03-30T12:17:27.202Z,5.90
2018-03-30T12:19:30.615Z,3.00
2018-03-30T12:21:35.527Z,2.63
2018-03-30T12:23:39.838Z,2.17
2018-03-30T12:25:43.219Z,3.33
2018-03-30T12:27:46.604Z,3.87
2018-03-30T12:29:49.956Z,2.20
2018-03-30T12:31:54.023Z,4.07
2018-03-30T12:33:58.539Z,2.40
2018-03-30T12:36:02.385Z,2.70
2018-03-30T12:38:07.139Z,2.40
2018-03-30T12:40:11.348Z,3.93
2018-03-30T12:42:14.964Z,2.90
2018-03-30T12:44:19.147Z,3.87
2018-03-30T12:46:22.496Z,2.73
2018-03-30T12:48:25.985Z,9.73
2018-03-30T12:50:30.091Z,3.67
2018-03-30T12:52:33.442Z,3.53
2018-03-30T12:54:36.778Z,4.97
2018-03-30T12:56:41.135Z,5.80
2018-03-30T12:58:44.455Z,4.70
2018-03-30T13:00:47.757Z,4.70
2018-03-30T13:02:51.100Z,3.33
2018-03-30T13:04:54.505Z,4.37
2018-03-30T13:06:57.823Z,5.87
2018-03-30T13:09:01.155Z,6.60
2018-03-30T13:11:04.530Z,4.37
2018-03-30T13:13:08.629Z,3.47
2018-03-30T13:15:11.987Z,4.20
2018-03-30T13:17:15.310Z,3.23
2018-03-30T13:19:18.785Z,3.10
2018-03-30T13:21:22.124Z,3.30
2018-03-30T13:23:26.204Z,3.10
2018-03-30T13:25:29.577Z,3.23
2018-03-30T13:27:32.994Z,2.10
2018-03-30T13:29:36.322Z,2.40
2018-03-30T13:31:39.671Z,6.80
2018-03-30T13:33:43.002Z,5.50
2018-03-30T13:35:46.387Z,1.83
2018-03-30T13:37:50.632Z,2.10
2018-03-30T13:39:53.998Z,2.53
2018-03-30T13:41:58.078Z,3.43
2018-03-30T13:44:01.383Z,3.33
2018-03-30T13:46:04.756Z,5.50
2018-03-30T13:48:08.066Z,3.63
2018-03-30T13:50:14.547Z,2.53
2018-03-30T13:52:23.046Z,4.30
2018-03-30T13:54:38.199Z,4.60
2018-03-30T13:56:43.481Z,3.43
2018-03-30T13:58:46.804Z,4.17
2018-03-30T14:01:10.636Z,4.03
2018-03-30T14:03:23.718Z,5.60
2018-03-30T14:05:33.640Z,5.50
2018-03-30T14:10:09.135Z,7.00
2018-03-30T14:12:17.932Z,5.07
2018-03-30T14:14:21.238Z,5.23
2018-03-30T14:16:29.351Z,5.97
2018-03-30T14:18:37.082Z,2.50
2018-03-30T14:20:41.156Z,5.17
2018-03-30T14:22:53.653Z,4.40
2018-03-30T14:24:59.579Z,11.80
2018-03-30T14:27:18.477Z,9.97
2018-03-30T14:29:24.507Z,5.23
2018-03-30T14:31:36.447Z,7.27
2018-03-30T14:33:39.803Z,9.33
2018-03-30T14:35:44.694Z,6.40
2018-03-30T14:37:49.748Z,6.37
2018-03-30T14:39:59.517Z,6.60
2018-03-30T14:42:05.378Z,6.60
2018-03-30T14:44:24.999Z,5.67
2018-03-30T14:46:33.926Z,9.33
2018-03-30T14:48:38.895Z,4.63
2018-03-30T14:50:47.931Z,8.90
2018-03-30T14:52:52.208Z,5.40
2018-03-30T14:54:58.412Z,8.17
2018-03-30T14:57:02.498Z,6.93
2018-03-30T15:01:37.187Z,6.20
2018-03-30T15:03:44.394Z,9.33
2018-03-30T15:06:07.309Z,7.07
2018-03-30T15:08:30.955Z,6.70
2018-03-30T15:10:51.794Z,8.20
2018-03-30T15:12:59.709Z,5.40
2018-03-30T15:15:15.683Z,9.00
2018-03-30T15:17:33.474Z,6.87
2018-03-30T15:19:43.205Z,9.87
2018-03-30T15:21:49.067Z,5.90
2018-03-30T15:24:03.115Z,5.20
2018-03-30T15:26:24.071Z,7.73
2018-03-30T15:28:32.662Z,6.80
2018-03-30T15:30:41.852Z,5.77
2018-03-30T15:35:15.490Z,9.53
2018-03-30T15:37:18.840Z,8.67
2018-03-30T15:39:22.181Z,6.17
2018-03-30T15:41:26.299Z,9.40
2018-03-30T15:43:31.597Z,8.23
2018-03-30T15:45:35.639Z,6.73
2018-03-30T15:47:38.963Z,9.30
2018-03-30T15:49:44.047Z,10.90
2018-03-30T15:51:48.205Z,14.20
2018-03-30T15:53:51.084Z,15.30
2018-03-30T15:55:55.176Z,13.70
2018-03-30T15:57:58.506Z,7.03
2018-03-30T16:00:02.653Z,9.73
2018-03-30T16:02:06.022Z,7.27
2018-03-30T16:04:09.385Z,11.77
2018-03-30T16:06:13.466Z,9.50
2018-03-30T16:08:16.797Z,9.13
2018-03-30T16:10:21.849Z,10.80
2018-03-30T16:12:29.785Z,10.47
2018-03-30T16:14:33.151Z,14.03
2018-03-30T16:16:36.464Z,11.90
2018-03-30T16:18:51.747Z,14.17
2018-03-30T16:20:55.387Z,10.27
2018-03-30T16:22:58.218Z,8.20
2018-03-30T16:25:01.913Z,14.20
2018-03-30T16:27:05.586Z,7.70
2018-03-30T16:29:08.447Z,6.97
2018-03-30T16:31:11.317Z,9.50
2018-03-30T16:33:14.265Z,7.77
2018-03-30T16:35:17.906Z,13.13
2018-03-30T16:37:20.862Z,10.57
2018-03-30T16:39:23.459Z,9.20
2018-03-30T16:41:26.884Z,9.20
2018-03-30T16:43:29.529Z,14.50
2018-03-30T16:45:32.108Z,10.00
2018-03-30T16:47:35.459Z,8.37
2018-03-30T16:49:38.859Z,8.20
2018-03-30T16:51:41.495Z,9.80
2018-03-30T16:53:45.071Z,8.27
2018-03-30T16:55:48.130Z,12.80
2018-03-30T16:57:52.761Z,10.40
2018-03-30T16:59:55.698Z,12.33
2018-03-30T17:01:58.364Z,13.10
2018-03-30T17:04:00.961Z,15.37
2018-03-30T17:06:03.693Z,12.87
2018-03-30T17:08:06.291Z,13.10
2018-03-30T17:10:09.207Z,14.80
2018-03-30T17:12:11.845Z,6.67
2018-03-30T17:14:15.148Z,8.73
2018-03-30T17:16:18.954Z,6.63
2018-03-30T17:18:22.805Z,7.23
2018-03-30T17:20:26.264Z,8.60
2018-03-30T17:22:30.550Z,7.57
2018-03-30T17:24:33.236Z,18.23
2018-03-30T17:26:35.818Z,9.27
2018-03-30T17:28:39.196Z,5.97
2018-03-30T17:30:41.774Z,6.70
2018-03-30T17:32:45.491Z,4.90
2018-03-30T17:34:49.100Z,6.53
2018-03-30T17:36:53.117Z,5.33
2018-03-30T17:38:57.064Z,12.40
2018-03-30T17:40:59.683Z,7.40
2018-03-30T17:43:03.102Z,8.00
2018-03-30T17:45:06.466Z,9.73
2018-03-30T17:47:09.542Z,9.40
2018-03-30T17:49:12.184Z,32.23
2018-03-30T17:51:15.650Z,17.20
2018-03-30T17:53:19.019Z,15.20
2018-03-30T17:55:22.030Z,15.40
2018-03-30T17:57:25.380Z,18.50
2018-03-30T17:59:28.765Z,14.30
2018-03-30T18:01:31.344Z,12.47
2018-03-30T18:03:33.919Z,12.40
2018-03-30T18:05:36.492Z,9.93
2018-03-30T18:07:39.114Z,9.20
2018-03-30T18:09:42.494Z,14.57
2018-03-30T18:11:45.911Z,13.60
2018-03-30T18:13:49.323Z,21.80
2018-03-30T18:15:51.911Z,20.63
2018-03-30T18:17:54.491Z,12.20
2018-03-30T18:19:57.103Z,10.13
2018-03-30T18:21:59.742Z,8.30
2018-03-30T18:24:02.324Z,9.30
2018-03-30T18:26:04.908Z,16.20
2018-03-30T18:28:07.495Z,9.53
2018-03-30T18:30:10.889Z,7.23
2018-03-30T18:32:13.488Z,9.63
2018-03-30T18:34:16.089Z,9.80
2018-03-30T18:36:18.701Z,9.80
2018-03-30T18:38:22.050Z,12.30
2018-03-30T18:40:24.657Z,9.17
2018-03-30T18:42:27.682Z,11.43
2018-03-30T18:44:30.283Z,8.80
2018-03-30T18:46:32.907Z,12.93
2018-03-30T18:48:36.267Z,12.00
2018-03-30T18:50:38.896Z,12.50
2018-03-30T18:52:41.494Z,12.93
2018-03-30T18:54:44.088Z,15.03
2018-03-30T18:56:46.700Z,18.23
2018-03-30T18:58:50.072Z,16.77
2018-03-30T19:00:52.652Z,17.63
2018-03-30T19:02:55.297Z,13.43
2018-03-30T19:04:57.910Z,11.67
2018-03-30T19:07:02.753Z,11.50
2018-03-30T19:09:06.086Z,12.70
2018-03-30T19:11:10.981Z,12.00
2018-03-30T19:13:13.565Z,13.53
2018-03-30T19:15:16.939Z,11.97
2018-03-30T19:17:19.546Z,12.70
2018-03-30T19:19:22.164Z,11.93
2018-03-30T19:21:25.529Z,10.57
2018-03-30T19:23:28.130Z,16.90
2018-03-30T19:25:31.504Z,15.33
2018-03-30T19:27:34.121Z,15.90
2018-03-30T19:29:36.714Z,21.80
2018-03-30T19:31:39.310Z,17.10
2018-03-30T19:33:41.896Z,13.83
2018-03-30T19:35:44.582Z,11.03
2018-03-30T19:37:47.177Z,13.03
2018-03-30T19:39:50.538Z,10.40
2018-03-30T19:41:53.152Z,10.60
2018-03-30T19:43:55.746Z,10.77
2018-03-30T19:45:58.373Z,14.03
2018-03-30T19:48:01.032Z,8.80
2018-03-30T19:50:03.619Z,11.23
2018-03-30T19:52:06.219Z,16.00
2018-03-30T19:54:08.799Z,14.83
2018-03-30T19:56:11.615Z,9.07
2018-03-30T19:58:14.223Z,10.57
2018-03-30T20:00:16.821Z,9.60
2018-03-30T20:02:19.415Z,11.00
2018-03-30T20:04:21.985Z,9.33
2018-03-30T20:06:24.584Z,8.20
2018-03-30T20:08:28.164Z,8.00
2018-03-30T20:10:31.472Z,12.40
2018-03-30T20:12:34.746Z,6.90
2018-03-30T20:14:39.045Z,9.40
2018-03-30T20:16:42.616Z,8.17
2018-03-30T20:18:46.845Z,9.23
2018-03-30T20:20:50.244Z,12.80
2018-03-30T20:22:52.826Z,12.80
2018-03-30T20:24:55.400Z,11.93
2018-03-30T20:26:58.842Z,16.77
2018-03-30T20:29:02.798Z,16.60
2018-03-30T20:31:05.926Z,22.77
2018-03-30T20:33:09.607Z,20.73
2018-03-30T20:35:12.330Z,26.87
2018-03-30T20:37:15.658Z,27.43
2018-03-30T20:39:18.461Z,29.13
2018-03-30T20:41:21.842Z,24.83
2018-03-30T20:43:24.459Z,19.73
2018-03-30T20:45:27.820Z,14.30
2018-03-30T20:47:30.406Z,16.23
2018-03-30T20:49:33.018Z,18.37
2018-03-30T20:51:35.613Z,17.93
2018-03-30T20:53:38.286Z,14.10
2018-03-30T20:55:40.893Z,14.60
2018-03-30T20:57:43.926Z,17.43
2018-03-30T20:59:48.189Z,11.90
2018-03-30T21:01:50.813Z,15.80
2018-03-30T21:03:53.413Z,12.40
2018-03-30T21:05:56.179Z,17.50
2018-03-30T21:07:59.520Z,16.70
2018-03-30T21:10:02.100Z,17.27
2018-03-30T21:12:05.462Z,16.70
2018-03-30T21:14:08.084Z,17.67
2018-03-30T21:16:10.671Z,18.70
2018-03-30T21:18:14.066Z,15.73
2018-03-30T21:20:17.630Z,17.50
2018-03-30T21:22:20.269Z,16.23
2018-03-30T21:24:25.186Z,14.07
2018-03-30T21:26:29.125Z,15.07
2018-03-30T21:28:32.427Z,13.97
2018-03-30T21:30:35.611Z,13.90
2018-03-30T21:32:39.199Z,14.43
2018-03-30T21:34:42.587Z,16.37
2018-03-30T21:36:46.248Z,17.70
2018-03-30T21:38:50.286Z,19.10
2018-03-30T21:40:53.949Z,19.90
2018-03-30T21:42:56.689Z,21.60
2018-03-30T21:44:59.871Z,20.17
2018-03-30T21:47:02.466Z,20.90
2018-03-30T21:49:05.068Z,19.70
2018-03-30T21:51:07.840Z,18.60
2018-03-30T21:53:11.280Z,16.40
2018-03-30T21:55:13.875Z,16.57
2018-03-30T21:57:17.250Z,16.63
2018-03-30T21:59:20.706Z,18.03
2018-03-30T22:01:23.339Z,16.43
2018-03-30T22:03:26.737Z,21.53
2018-03-30T22:05:30.122Z,14.07
2018-03-30T22:07:33.962Z,13.97
2018-03-30T22:09:36.578Z,16.30
2018-03-30T22:11:39.174Z,16.27
2018-03-30T22:13:43.108Z,19.13
2018-03-30T22:15:45.735Z,13.63
2018-03-30T22:17:48.329Z,15.30
2018-03-30T22:19:51.713Z,14.27
2018-03-30T22:21:54.334Z,18.20
2018-03-30T22:23:57.689Z,16.50
2018-03-30T22:26:01.059Z,17.33
2018-03-30T22:28:03.661Z,16.40
2018-03-30T22:30:06.256Z,24.40
2018-03-30T22:32:08.907Z,18.40
2018-03-30T22:34:12.278Z,20.03
2018-03-30T22:36:15.651Z,24.20
2018-03-30T22:38:18.509Z,22.40
2018-03-30T22:40:21.095Z,23.63
2018-03-30T22:42:23.774Z,22.33
2018-03-30T22:44:26.423Z,18.90
2018-03-30T22:46:29.025Z,22.90
2018-03-30T22:48:31.639Z,21.13
2018-03-30T22:50:35.053Z,17.43
2018-03-30T22:52:37.637Z,18.60
2018-03-30T22:54:40.996Z,16.83
2018-03-30T22:56:44.350Z,19.40
2018-03-30T22:58:46.959Z,18.00
2018-03-30T23:00:50.353Z,18.50
2018-03-30T23:02:53.747Z,18.93
2018-03-30T23:04:58.199Z,21.50
2018-03-30T23:07:02.099Z,16.87
2018-03-30T23:09:06.235Z,18.50
2018-03-30T23:11:09.994Z,14.53
2018-03-30T23:13:13.788Z,16.13
2018-03-30T23:15:17.541Z,14.03
2018-03-30T23:17:20.488Z,17.03
2018-03-30T23:19:24.117Z,17.17
2018-03-30T23:21:27.753Z,15.43
2018-03-30T23:23:30.623Z,19.70
2018-03-30T23:25:33.471Z,14.93
2018-03-30T23:27:36.334Z,18.53
2018-03-30T23:29:39.962Z,16.60
2018-03-30T23:31:43.456Z,17.37
2018-03-30T23:33:46.303Z,17.90
2018-03-30T23:35:49.135Z,18.57
2018-03-30T23:37:51.967Z,23.57
2018-03-30T23:39:54.802Z,17.13
2018-03-30T23:41:57.709Z,18.00
2018-03-30T23:44:00.539Z,16.30
2018-03-30T23:46:04.125Z,15.43
2018-03-30T23:48:06.972Z,17.73
2018-03-30T23:50:09.822Z,16.53
2018-03-30T23:52:12.704Z,15.43
2018-03-30T23:54:15.572Z,16.13
2018-03-30T23:56:18.424Z,15.33
2018-03-30T23:58:21.296Z,19.70
